Time;durP1;ratioP1;P1;durP2;ratioP2;P2;SDS_P1;SDS_P2;PMS_P1;PMS_P2;Temp;Humidity;BMP_temperature;BMP_pressure;BME280_temperature;BME280_humidity;BME280_pressure;Samples;Min_cycle;Max_cycle;Signal;HPM_P1;HPM_P2
2022/10/13 00:02:40;;;;;;;33.50;14.10;;;8.00;1.00;;;;;;5079267;28;20759;-86
2022/10/13 00:05:57;;;;;;;28.37;15.80;;;8.00;1.00;;;;;;5090976;28;20444;-85
2022/10/13 00:11:45;;;;;;;31.37;14.60;;;7.90;1.00;;;;;;5088935;28;20830;-86
2022/10/13 00:14:45;;;;;;;31.93;16.77;;;7.90;1.00;;;;;;5077850;28;20421;-78
2022/10/13 00:20:33;;;;;;;31.40;16.90;;;7.90;1.00;;;;;;5074297;28;20498;-77
2022/10/13 00:22:59;;;;;;;29.00;14.33;;;8.00;1.00;;;;;;5075413;28;20421;-77
2022/10/13 00:25:25;;;;;;;33.40;15.87;;;7.90;1.00;;;;;;5089740;28;20420;-78
2022/10/13 00:27:52;;;;;;;27.83;15.03;;;8.00;1.00;;;;;;5089010;28;20174;-77
2022/10/13 00:30:23;;;;;;;28.60;16.03;;;8.00;1.00;;;;;;5079258;28;20405;-77
2022/10/13 00:36:40;;;;;;;27.20;16.00;;;8.00;1.00;;;;;;5084596;28;21040;-77
2022/10/13 00:39:52;;;;;;;28.97;16.33;;;8.10;1.00;;;;;;5078111;28;20511;-78
2022/10/13 00:42:40;;;;;;;35.80;14.60;;;8.10;1.00;;;;;;5082134;28;20439;-77
2022/10/13 00:48:29;;;;;;;29.50;15.17;;;8.30;3.40;;;;;;5089717;28;20397;-86
2022/10/13 00:54:21;;;;;;;28.20;14.60;;;8.40;2.10;;;;;;5076080;28;20401;-86
2022/10/13 01:00:09;;;;;;;25.90;14.50;;;8.50;1.00;;;;;;5074423;28;20494;-78
2022/10/13 01:02:46;;;;;;;27.27;14.33;;;8.50;1.00;;;;;;5084620;28;20420;-78
2022/10/13 01:05:34;;;;;;;28.53;15.30;;;8.60;1.00;;;;;;5080735;28;20487;-77
2022/10/13 01:08:01;;;;;;;24.23;14.13;;;8.50;1.00;;;;;;5087015;28;20476;-77
2022/10/13 01:11:09;;;;;;;27.57;12.60;;;8.60;1.00;;;;;;5075757;28;20506;-78
2022/10/13 01:17:15;;;;;;;41.63;15.07;;;8.50;1.00;;;;;;5077614;28;20392;-77
2022/10/13 01:20:14;;;;;;;27.80;14.10;;;8.40;1.00;;;;;;5077458;28;20455;-77
2022/10/13 01:23:17;;;;;;;40.90;13.43;;;8.40;1.00;;;;;;5091047;28;20409;-78
2022/10/13 01:26:14;;;;;;;29.80;13.50;;;8.40;1.00;;;;;;5094772;28;20436;-77
2022/10/13 01:29:01;;;;;;;27.40;13.90;;;8.40;1.00;;;;;;5086380;28;20461;-77
2022/10/13 01:35:13;;;;;;;28.37;13.93;;;8.30;1.00;;;;;;5090284;28;20466;-77
2022/10/13 01:37:59;;;;;;;23.63;13.80;;;8.30;1.00;;;;;;5092412;28;20487;-78
2022/10/13 01:41:03;;;;;;;35.43;15.10;;;8.30;1.00;;;;;;5097149;28;20452;-77
2022/10/13 01:43:39;;;;;;;29.43;14.80;;;8.30;1.00;;;;;;5080049;28;20401;-77
2022/10/13 01:46:35;;;;;;;26.30;13.90;;;8.30;1.00;;;;;;5090703;28;20456;-78
2022/10/13 01:49:34;;;;;;;32.23;14.27;;;8.30;1.00;;;;;;5079415;28;20474;-78
2022/10/13 01:52:33;;;;;;;24.33;14.40;;;8.30;1.00;;;;;;5077178;28;20883;-77
2022/10/13 01:55:11;;;;;;;29.43;14.43;;;8.40;1.00;;;;;;5089308;28;20408;-77
2022/10/13 01:57:46;;;;;;;29.80;14.57;;;8.30;1.00;;;;;;5092241;28;20420;-77
2022/10/13 02:04:11;;;;;;;28.53;13.80;;;8.40;1.00;;;;;;5081543;28;20415;-86
2022/10/13 02:07:02;;;;;;;29.10;14.60;;;8.40;1.00;;;;;;5090787;28;20411;-86
2022/10/13 02:23:17;;;;;;;30.20;15.17;;;8.50;1.00;;;;;;5076984;28;20384;-86
2022/10/13 02:32:28;;;;;;;28.87;14.40;;;8.50;1.00;;;;;;5094082;28;20427;-85
2022/10/13 02:41:38;;;;;;;27.33;14.30;;;8.50;1.00;;;;;;5088994;28;20435;-86
2022/10/13 02:44:45;;;;;;;25.77;13.37;;;8.60;1.00;;;;;;5093249;28;20424;-86
2022/10/13 02:57:40;;;;;;;32.47;14.03;;;8.50;1.00;;;;;;5093067;28;20412;-86
2022/10/13 03:03:27;;;;;;;33.30;14.30;;;8.50;1.00;;;;;;5080090;28;20428;-86
2022/10/13 03:12:40;;;;;;;30.63;15.17;;;8.50;1.00;;;;;;5084531;28;20461;-87
2022/10/13 03:18:28;;;;;;;28.63;15.17;;;8.60;1.00;;;;;;5088265;28;20959;-86
2022/10/13 03:21:45;;;;;;;23.87;13.40;;;8.60;1.00;;;;;;5088127;28;20451;-87
2022/10/13 03:27:33;;;;;;;30.20;15.13;;;8.80;1.00;;;;;;5088313;28;20400;-86
2022/10/13 03:30:52;;;;;;;39.60;14.60;;;8.90;1.00;;;;;;5076207;28;20417;-77
2022/10/13 03:33:40;;;;;;;29.40;15.27;;;8.90;1.00;;;;;;5075849;28;20789;-77
2022/10/13 03:36:22;;;;;;;27.80;15.10;;;8.90;1.00;;;;;;5084266;28;20413;-77
2022/10/13 03:39:04;;;;;;;29.50;15.27;;;8.90;1.00;;;;;;5081245;28;20423;-77
2022/10/13 03:42:04;;;;;;;44.67;16.10;;;8.90;1.00;;;;;;5091349;28;20837;-77
2022/10/13 03:44:40;;;;;;;33.63;14.97;;;9.00;1.00;;;;;;5079591;28;20480;-77
2022/10/13 03:47:06;;;;;;;33.73;14.40;;;9.00;1.00;;;;;;5083436;28;20420;-77
2022/10/13 03:56:24;;;;;;;28.87;14.20;;;9.20;1.00;;;;;;5076845;28;20511;-77
2022/10/13 03:59:17;;;;;;;44.37;15.10;;;9.20;1.00;;;;;;5093453;28;20502;-77
2022/10/13 04:05:46;;;;;;;46.57;16.60;;;9.30;1.00;;;;;;5078013;28;20830;-87
2022/10/13 04:11:33;;;;;;;66.73;17.80;;;9.50;1.00;;;;;;5079236;28;20486;-80
2022/10/13 04:20:58;;;;;;;35.87;15.90;;;9.70;1.50;;;;;;5085806;28;20496;-80
2022/10/13 04:23:28;;;;;;;38.53;14.57;;;9.80;1.30;;;;;;5074585;28;20445;-80
2022/10/13 04:26:19;;;;;;;43.60;14.77;;;9.90;1.30;;;;;;5073955;28;20417;-81
2022/10/13 04:28:46;;;;;;;48.40;15.60;;;9.90;3.00;;;;;;5085432;28;20424;-80
2022/10/13 04:34:33;;;;;;;46.60;16.13;;;9.80;1.00;;;;;;5085424;28;20558;-80
2022/10/13 04:40:21;;;;;;;44.27;16.00;;;9.90;1.00;;;;;;5089870;28;20306;-80
2022/10/13 04:42:58;;;;;;;45.63;15.73;;;9.90;1.00;;;;;;5079896;28;20460;-80
2022/10/13 04:45:52;;;;;;;39.23;16.87;;;10.00;1.00;;;;;;5075377;28;20194;-80
2022/10/13 04:48:22;;;;;;;49.33;15.53;;;10.00;1.00;;;;;;5083502;28;20423;-74
2022/10/13 04:51:11;;;;;;;39.53;15.67;;;10.00;1.00;;;;;;5086165;28;20436;-74
2022/10/13 04:53:41;;;;;;;43.10;18.07;;;9.90;1.00;;;;;;5073306;28;20559;-74
2022/10/13 04:56:09;;;;;;;42.50;15.53;;;9.90;1.00;;;;;;5079350;28;20459;-74
2022/10/13 04:58:36;;;;;;;38.20;15.83;;;9.90;1.00;;;;;;5080339;28;20426;-74
2022/10/13 05:01:04;;;;;;;34.40;15.90;;;9.90;1.00;;;;;;5084735;28;20456;-75
2022/10/13 05:03:49;;;;;;;37.30;15.27;;;9.90;1.00;;;;;;5079437;28;20487;-74
2022/10/13 05:06:21;;;;;;;37.30;16.33;;;9.90;1.00;;;;;;5085081;28;20424;-74
2022/10/13 05:08:47;;;;;;;32.33;14.80;;;9.90;1.00;;;;;;5081804;28;20955;-74
2022/10/13 05:11:13;;;;;;;30.87;14.70;;;9.90;1.00;;;;;;5083871;28;20520;-72
2022/10/13 05:13:40;;;;;;;41.17;14.70;;;9.90;1.00;;;;;;5081527;28;20435;-75
2022/10/13 05:16:12;;;;;;;34.87;16.57;;;9.90;1.00;;;;;;5081363;28;20995;-75
2022/10/13 05:18:47;;;;;;;37.20;15.57;;;10.00;1.00;;;;;;5083613;28;20512;-74
2022/10/13 05:21:18;;;;;;;31.87;14.93;;;10.00;1.00;;;;;;5090522;28;20420;-75
2022/10/13 05:23:45;;;;;;;42.13;15.60;;;10.00;1.00;;;;;;5080548;28;20435;-75
2022/10/13 05:26:14;;;;;;;45.57;16.50;;;10.10;1.00;;;;;;5082178;28;20804;-74
2022/10/13 05:28:40;;;;;;;38.97;16.30;;;10.10;1.00;;;;;;5079653;28;20443;-74
2022/10/13 05:31:19;;;;;;;83.00;16.90;;;10.10;1.00;;;;;;5073910;28;20429;-75
2022/10/13 05:33:45;;;;;;;53.83;15.90;;;10.20;1.00;;;;;;5077237;28;21169;-75
2022/10/13 05:36:30;;;;;;;46.83;15.90;;;10.20;1.00;;;;;;5080656;28;20441;-74
2022/10/13 05:38:58;;;;;;;42.70;16.00;;;10.20;1.00;;;;;;5075182;28;20483;-74
2022/10/13 05:41:26;;;;;;;85.33;15.27;;;10.20;1.00;;;;;;5083323;28;20428;-74
2022/10/13 05:44:01;;;;;;;38.27;15.07;;;10.20;1.00;;;;;;5077640;28;20478;-74
2022/10/13 05:46:28;;;;;;;39.40;15.30;;;10.20;1.00;;;;;;5081273;28;20426;-75
2022/10/13 05:49:04;;;;;;;41.87;16.23;;;10.20;1.00;;;;;;5080367;28;20431;-74
2022/10/13 05:51:37;;;;;;;42.43;13.40;;;10.20;1.00;;;;;;5080021;28;20731;-74
2022/10/13 05:54:12;;;;;;;36.80;14.80;;;10.30;1.00;;;;;;5080632;28;20455;-75
2022/10/13 05:56:43;;;;;;;31.80;14.17;;;10.30;1.00;;;;;;5079507;28;20406;-74
2022/10/13 05:59:12;;;;;;;32.80;14.67;;;10.30;1.00;;;;;;5079963;28;20513;-73
2022/10/13 06:01:41;;;;;;;33.70;15.37;;;10.30;1.00;;;;;;5083707;28;20437;-73
2022/10/13 06:04:19;;;;;;;24.60;14.07;;;10.30;1.00;;;;;;5087297;28;20535;-73
2022/10/13 06:06:46;;;;;;;25.63;13.30;;;10.40;1.00;;;;;;5083498;28;20443;-74
2022/10/13 06:09:17;;;;;;;25.60;12.77;;;10.40;1.00;;;;;;5083057;28;20440;-73
2022/10/13 06:11:46;;;;;;;45.70;13.33;;;10.40;1.00;;;;;;5081386;28;20457;-74
2022/10/13 06:14:12;;;;;;;36.13;14.93;;;10.40;1.00;;;;;;5079466;28;20413;-73
2022/10/13 06:16:43;;;;;;;27.57;14.17;;;10.40;1.00;;;;;;5078477;28;20930;-74
2022/10/13 06:19:09;;;;;;;31.70;14.53;;;10.50;1.00;;;;;;5077531;28;20540;-73
2022/10/13 06:21:35;;;;;;;30.97;15.10;;;10.40;1.00;;;;;;5088242;28;20443;-73
2022/10/13 06:24:01;;;;;;;35.53;14.73;;;10.50;1.00;;;;;;5077589;28;20512;-74
2022/10/13 06:30:41;;;;;;;38.13;13.40;;;10.50;1.00;;;;;;5079920;28;20416;-75
2022/10/13 06:33:10;;;;;;;27.17;13.60;;;10.50;1.00;;;;;;5084225;28;20972;-75
2022/10/13 06:35:36;;;;;;;24.50;13.27;;;10.50;1.00;;;;;;5087953;28;20449;-75
2022/10/13 06:38:01;;;;;;;28.60;13.70;;;10.50;1.00;;;;;;5083394;28;20422;-75
2022/10/13 06:40:52;;;;;;;29.63;14.67;;;10.70;1.00;;;;;;5084458;28;20680;-75
2022/10/13 06:43:34;;;;;;;31.23;13.93;;;10.70;1.00;;;;;;5081555;28;20175;-75
2022/10/13 06:46:40;;;;;;;29.00;13.30;;;10.90;1.00;;;;;;5084772;28;20425;-75
2022/10/13 06:49:16;;;;;;;40.30;13.73;;;11.00;1.00;;;;;;5089906;28;20486;-75
2022/10/13 06:51:42;;;;;;;51.63;15.00;;;11.10;1.00;;;;;;5083487;28;20425;-75
2022/10/13 06:54:10;;;;;;;31.30;15.03;;;11.20;1.00;;;;;;5084132;28;20452;-74
2022/10/13 06:56:46;;;;;;;22.20;12.70;;;11.30;1.00;;;;;;5080508;28;20188;-75
2022/10/13 06:59:34;;;;;;;20.63;12.37;;;11.30;1.00;;;;;;5091009;28;20463;-75
2022/10/13 07:02:00;;;;;;;22.87;12.87;;;11.40;1.00;;;;;;5084445;28;20417;-75
2022/10/13 07:04:34;;;;;;;21.13;12.97;;;11.40;1.00;;;;;;5081808;28;20449;-75
2022/10/13 07:07:04;;;;;;;21.87;13.57;;;11.40;1.00;;;;;;5089615;28;20261;-76
2022/10/13 07:09:30;;;;;;;28.30;14.17;;;11.50;1.00;;;;;;5082566;28;20412;-76
2022/10/13 07:12:04;;;;;;;28.03;13.50;;;11.50;1.00;;;;;;5089964;28;20428;-76
2022/10/13 07:14:47;;;;;;;25.17;14.60;;;11.50;1.00;;;;;;5075648;28;20416;-77
2022/10/13 07:17:16;;;;;;;33.17;15.00;;;11.50;1.00;;;;;;5075428;28;20500;-75
2022/10/13 07:19:47;;;;;;;38.17;14.30;;;11.60;1.00;;;;;;5074074;28;20461;-76
2022/10/13 07:22:29;;;;;;;33.20;14.63;;;11.60;1.00;;;;;;5075652;28;20421;-76
2022/10/13 07:25:22;;;;;;;30.47;15.03;;;11.70;1.00;;;;;;5076053;28;20508;-78
2022/10/13 07:28:16;;;;;;;35.50;16.87;;;11.80;1.00;;;;;;5078829;28;20414;-76
2022/10/13 07:30:43;;;;;;;33.70;16.07;;;11.90;1.00;;;;;;5079091;28;20475;-70
2022/10/13 07:33:09;;;;;;;30.03;16.00;;;12.00;1.00;;;;;;5076342;28;20417;-71
2022/10/13 07:35:37;;;;;;;28.30;16.07;;;12.10;1.00;;;;;;5078640;28;20478;-71
2022/10/13 07:38:04;;;;;;;28.67;14.90;;;12.30;1.00;;;;;;5080815;28;20437;-71
2022/10/13 07:40:29;;;;;;;30.47;15.97;;;12.40;1.00;;;;;;5081715;28;20440;-71
2022/10/13 07:42:56;;;;;;;23.60;14.40;;;12.50;1.00;;;;;;5088939;28;20473;-71
2022/10/13 07:45:22;;;;;;;23.50;14.53;;;12.60;1.00;;;;;;5075538;28;20182;-71
2022/10/13 07:47:48;;;;;;;26.53;13.60;;;12.70;1.00;;;;;;5080465;28;20456;-71
2022/10/13 07:50:15;;;;;;;25.80;14.73;;;12.80;1.00;;;;;;5081477;28;20927;-71
2022/10/13 07:52:41;;;;;;;33.83;14.33;;;12.90;1.00;;;;;;5086713;28;20427;-71
2022/10/13 07:55:07;;;;;;;23.90;13.60;;;12.90;1.00;;;;;;5075451;28;20444;-71
2022/10/13 07:57:34;;;;;;;24.20;14.00;;;13.00;1.00;;;;;;5085629;28;20963;-71
2022/10/13 08:00:00;;;;;;;29.90;15.00;;;13.00;1.00;;;;;;5074404;28;20459;-71
2022/10/13 08:02:29;;;;;;;30.70;14.87;;;12.90;1.00;;;;;;5073975;28;20421;-71
2022/10/13 08:04:55;;;;;;;28.37;15.33;;;12.80;1.00;;;;;;5088013;28;20909;-71
2022/10/13 08:07:21;;;;;;;24.50;14.90;;;12.90;1.00;;;;;;5080642;28;20441;-71
2022/10/13 08:09:46;;;;;;;27.07;15.00;;;13.00;1.00;;;;;;5086867;28;20269;-71
2022/10/13 08:12:12;;;;;;;24.87;14.90;;;13.10;1.00;;;;;;5078008;28;20826;-71
2022/10/13 08:14:38;;;;;;;27.20;16.20;;;13.30;1.00;;;;;;5081596;28;20227;-71
2022/10/13 08:17:04;;;;;;;27.37;15.80;;;13.40;1.00;;;;;;5093062;28;20637;-71
2022/10/13 08:19:34;;;;;;;31.67;15.37;;;13.60;1.00;;;;;;5089812;28;20194;-74
2022/10/13 08:22:00;;;;;;;30.57;17.07;;;13.60;1.00;;;;;;5074444;28;20171;-74
2022/10/13 08:24:26;;;;;;;37.90;18.17;;;13.70;1.00;;;;;;5088354;28;20429;-74
2022/10/13 08:26:52;;;;;;;34.70;18.00;;;13.70;1.00;;;;;;5086191;28;20255;-74
2022/10/13 08:29:18;;;;;;;35.70;17.53;;;13.90;1.00;;;;;;5080732;28;20583;-74
2022/10/13 08:31:44;;;;;;;32.03;17.30;;;14.10;1.00;;;;;;5089968;28;20181;-74
2022/10/13 08:34:10;;;;;;;35.10;18.23;;;14.10;1.00;;;;;;5093141;28;20682;-74
2022/10/13 08:36:36;;;;;;;30.13;16.87;;;14.10;1.00;;;;;;5071552;28;20214;-74
2022/10/13 08:39:02;;;;;;;41.07;18.30;;;14.00;1.00;;;;;;5081628;28;20480;-74
2022/10/13 08:41:37;;;;;;;38.43;18.30;;;14.10;1.00;;;;;;5091945;28;20465;-74
2022/10/13 08:44:23;;;;;;;45.70;18.40;;;14.10;1.00;;;;;;5076825;28;20427;-74
2022/10/13 08:46:55;;;;;;;35.90;18.63;;;14.10;1.00;;;;;;5073600;28;20494;-74
2022/10/13 08:49:29;;;;;;;34.00;17.47;;;14.10;1.00;;;;;;5085856;28;20468;-74
2022/10/13 08:51:57;;;;;;;34.40;17.80;;;14.20;1.00;;;;;;5079625;28;20507;-75
2022/10/13 08:54:34;;;;;;;43.57;19.00;;;14.30;1.00;;;;;;5077028;28;20443;-74
2022/10/13 08:57:00;;;;;;;35.20;18.60;;;14.40;1.00;;;;;;5073257;28;20395;-74
2022/10/13 08:59:26;;;;;;;36.77;18.37;;;14.50;1.00;;;;;;5086098;28;20925;-74
2022/10/13 09:01:54;;;;;;;47.27;19.00;;;14.60;1.00;;;;;;5079920;28;20444;-74
2022/10/13 09:04:35;;;;;;;32.93;16.93;;;14.60;1.00;;;;;;5085955;28;20217;-74
2022/10/13 09:07:21;;;;;;;30.30;17.53;;;14.50;1.00;;;;;;5079865;28;20437;-74
2022/10/13 09:09:52;;;;;;;38.40;17.77;;;14.50;1.00;;;;;;5077219;28;20391;-74
2022/10/13 09:12:25;;;;;;;38.73;19.40;;;14.50;1.00;;;;;;5081779;28;20425;-74
2022/10/13 09:15:01;;;;;;;39.17;20.03;;;14.40;1.00;;;;;;5086702;28;20457;-74
2022/10/13 09:17:29;;;;;;;43.73;20.23;;;14.40;1.00;;;;;;5087370;28;20418;-74
2022/10/13 09:20:05;;;;;;;46.93;19.53;;;14.40;1.00;;;;;;5085096;28;20499;-74
2022/10/13 09:22:37;;;;;;;38.27;19.63;;;14.40;1.00;;;;;;5076151;28;20416;-74
2022/10/13 09:25:19;;;;;;;44.17;19.63;;;14.50;1.00;;;;;;5093056;28;20462;-74
2022/10/13 09:28:07;;;;;;;41.13;19.30;;;14.50;1.00;;;;;;5075350;28;20925;-74
2022/10/13 09:30:39;;;;;;;42.13;19.37;;;14.40;1.00;;;;;;5075140;28;20469;-74
2022/10/13 09:33:08;;;;;;;41.97;20.30;;;14.30;1.00;;;;;;5090161;28;20423;-75
2022/10/13 09:35:35;;;;;;;44.73;20.47;;;14.30;1.00;;;;;;5094391;28;20932;-75
2022/10/13 09:38:18;;;;;;;36.47;18.73;;;14.30;1.00;;;;;;5080646;28;20978;-74
2022/10/13 09:41:05;;;;;;;45.63;19.93;;;14.30;1.00;;;;;;5079427;28;20484;-75
2022/10/13 09:43:40;;;;;;;43.00;19.60;;;14.20;1.00;;;;;;5077344;28;20550;-74
2022/10/13 09:46:12;;;;;;;42.57;20.20;;;14.20;1.00;;;;;;5077662;28;20987;-74
2022/10/13 09:48:44;;;;;;;47.50;21.07;;;14.20;1.00;;;;;;5077500;28;20900;-74
2022/10/13 09:51:35;;;;;;;44.13;20.97;;;14.20;1.00;;;;;;5077746;28;20429;-74
2022/10/13 09:54:02;;;;;;;48.20;20.53;;;14.20;1.00;;;;;;5086338;28;20831;-71
2022/10/13 09:56:35;;;;;;;43.03;21.43;;;14.20;1.00;;;;;;5089535;28;20539;-70
2022/10/13 09:59:25;;;;;;;45.37;21.57;;;14.10;1.00;;;;;;5078621;28;20793;-70
2022/10/13 10:01:53;;;;;;;41.10;20.90;;;14.20;1.00;;;;;;5078315;28;20428;-70
2022/10/13 10:04:34;;;;;;;48.30;20.80;;;14.20;1.00;;;;;;5088183;28;21176;-70
2022/10/13 10:07:04;;;;;;;40.33;20.20;;;14.30;1.00;;;;;;5076249;28;20428;-70
2022/10/13 10:09:45;;;;;;;47.03;20.50;;;14.20;1.00;;;;;;5081803;28;20433;-70
2022/10/13 10:12:21;;;;;;;46.90;21.33;;;14.20;1.00;;;;;;5077127;28;20418;-70
2022/10/13 10:14:49;;;;;;;48.33;21.97;;;14.20;1.00;;;;;;5084707;28;20428;-71
2022/10/13 10:17:28;;;;;;;43.40;20.23;;;14.30;1.00;;;;;;5076294;28;20559;-71
2022/10/13 10:20:35;;;;;;;41.77;20.57;;;14.40;1.00;;;;;;5082492;28;20438;-70
2022/10/13 10:23:11;;;;;;;37.17;19.03;;;14.60;1.00;;;;;;5001646;28;20478;-70
2022/10/13 10:25:43;;;;;;;48.07;20.00;;;14.50;1.00;;;;;;4998357;28;20490;-70
2022/10/13 10:28:43;;;;;;;47.30;20.73;;;14.30;1.00;;;;;;5001859;28;20856;-70
2022/10/13 10:31:42;;;;;;;38.17;19.27;;;14.50;1.00;;;;;;4999481;28;20551;-70
2022/10/13 10:34:48;;;;;;;39.40;19.73;;;14.40;1.00;;;;;;4997256;28;20425;-70
2022/10/13 10:37:19;;;;;;;39.67;21.17;;;14.40;1.00;;;;;;4997750;28;20583;-70
2022/10/13 10:39:46;;;;;;;38.90;20.70;;;14.70;1.00;;;;;;5000903;28;20484;-70
2022/10/13 10:42:39;;;;;;;38.03;19.73;;;14.90;1.00;;;;;;4996459;28;20460;-70
2022/10/13 10:45:22;;;;;;;42.30;20.20;;;15.20;1.00;;;;;;4999197;28;20444;-70
2022/10/13 10:47:53;;;;;;;44.83;21.40;;;15.00;1.00;;;;;;4999594;28;20439;-70
2022/10/13 10:50:20;;;;;;;42.20;21.90;;;15.00;1.00;;;;;;5003411;28;21535;-70
2022/10/13 10:53:21;;;;;;;44.47;21.23;;;15.20;1.00;;;;;;4993597;28;20456;-70
2022/10/13 10:55:59;;;;;;;43.23;20.33;;;15.20;1.00;;;;;;4998490;28;20901;-70
2022/10/13 10:58:31;;;;;;;42.63;20.63;;;15.30;1.00;;;;;;5003880;28;20443;-70
2022/10/13 11:01:20;;;;;;;49.37;20.67;;;15.50;1.00;;;;;;5081919;28;20431;-70
2022/10/13 11:03:53;;;;;;;42.30;19.97;;;15.70;1.00;;;;;;5072075;28;20436;-70
2022/10/13 11:06:33;;;;;;;42.33;21.13;;;15.90;1.00;;;;;;5079388;28;20896;-70
2022/10/13 11:08:59;;;;;;;41.87;21.13;;;16.20;1.00;;;;;;5084315;28;20931;-70
2022/10/13 11:11:25;;;;;;;45.70;21.77;;;16.40;1.00;;;;;;5084227;28;20551;-70
2022/10/13 11:14:04;;;;;;;41.03;20.03;;;16.20;1.00;;;;;;5088573;28;20449;-70
2022/10/13 11:16:34;;;;;;;44.73;21.27;;;16.40;1.00;;;;;;5078955;28;20179;-70
2022/10/13 11:19:24;;;;;;;39.33;20.10;;;16.50;1.00;;;;;;5084661;28;20953;-70
2022/10/13 11:21:52;;;;;;;37.30;18.53;;;16.50;1.00;;;;;;5078367;28;20409;-70
2022/10/13 11:24:35;;;;;;;36.20;18.80;;;16.70;1.00;;;;;;5077797;28;20466;-70
2022/10/13 11:27:15;;;;;;;41.73;18.90;;;16.90;1.00;;;;;;5080756;28;20387;-70
2022/10/13 11:29:56;;;;;;;38.50;17.60;;;16.80;1.00;;;;;;5075145;28;20389;-70
2022/10/13 11:32:25;;;;;;;30.80;17.20;;;16.90;1.00;;;;;;5084245;28;20429;-70
2022/10/13 11:35:00;;;;;;;34.07;16.77;;;17.00;1.00;;;;;;5089184;28;20416;-70
2022/10/13 11:37:40;;;;;;;32.17;16.33;;;17.20;1.00;;;;;;5083079;28;20517;-71
2022/10/13 11:40:32;;;;;;;24.77;14.93;;;17.30;1.00;;;;;;5076046;28;20475;-73
2022/10/13 11:43:07;;;;;;;25.40;14.60;;;17.40;1.00;;;;;;5084546;28;20428;-73
2022/10/13 11:45:38;;;;;;;36.70;14.97;;;17.50;1.00;;;;;;5085750;28;20486;-72
2022/10/13 11:48:37;;;;;;;31.10;14.47;;;17.50;1.00;;;;;;5082594;28;20396;-73
2022/10/13 11:51:03;;;;;;;27.97;14.90;;;17.60;1.00;;;;;;5077584;28;20429;-73
2022/10/13 11:53:42;;;;;;;25.23;13.83;;;17.60;1.00;;;;;;5075170;28;20787;-72
2022/10/13 11:56:30;;;;;;;21.57;12.67;;;17.70;1.00;;;;;;5079594;28;20176;-73
2022/10/13 11:58:56;;;;;;;23.93;11.53;;;17.70;1.00;;;;;;5078925;28;20860;-73
2022/10/13 12:01:21;;;;;;;26.90;11.67;;;17.90;1.00;;;;;;5080730;28;20464;-73
2022/10/13 12:03:47;;;;;;;25.73;12.17;;;17.90;1.00;;;;;;5075498;28;20261;-74
2022/10/13 12:06:34;;;;;;;18.77;11.40;;;18.10;1.00;;;;;;5079021;28;20180;-73
2022/10/13 12:09:06;;;;;;;27.50;12.00;;;18.10;1.00;;;;;;5081117;28;20288;-73
2022/10/13 12:11:36;;;;;;;21.33;10.43;;;18.30;1.00;;;;;;5079669;28;20761;-73
2022/10/13 12:14:04;;;;;;;19.67;9.93;;;18.30;1.00;;;;;;5073985;28;20867;-73
2022/10/13 12:16:30;;;;;;;20.63;10.60;;;17.90;1.00;;;;;;5085497;28;20405;-73
2022/10/13 12:19:31;;;;;;;22.40;11.47;;;17.80;1.00;;;;;;5078849;28;20811;-72
2022/10/13 12:21:59;;;;;;;28.23;12.47;;;17.50;1.00;;;;;;4996946;28;20199;-73
2022/10/13 12:24:29;;;;;;;24.33;12.33;;;17.40;1.00;;;;;;5010747;28;20427;-73
2022/10/13 12:26:56;;;;;;;19.43;11.03;;;17.40;1.00;;;;;;5005569;28;20399;-73
2022/10/13 12:29:27;;;;;;;23.60;11.57;;;17.30;1.00;;;;;;4997995;28;20435;-72
2022/10/13 12:31:53;;;;;;;25.90;12.30;;;17.30;1.00;;;;;;4999536;28;20415;-72
2022/10/13 12:34:35;;;;;;;24.33;11.70;;;17.30;1.00;;;;;;4993293;28;21058;-73
2022/10/13 12:37:17;;;;;;;20.60;11.90;;;17.10;1.00;;;;;;4999085;28;20424;-73
2022/10/13 12:39:43;;;;;;;24.83;13.47;;;17.20;1.00;;;;;;5005611;28;20517;-70
2022/10/13 12:42:13;;;;;;;32.57;11.53;;;17.10;1.00;;;;;;4997677;28;20962;-70
2022/10/13 12:44:39;;;;;;;32.50;13.60;;;17.00;1.00;;;;;;5010382;28;20788;-70
2022/10/13 12:47:25;;;;;;;25.83;12.90;;;17.00;1.00;;;;;;5006068;28;20485;-70
2022/10/13 12:49:51;;;;;;;30.63;13.60;;;16.80;1.00;;;;;;5001037;28;20443;-70
2022/10/13 12:52:23;;;;;;;22.43;12.20;;;17.20;1.00;;;;;;4992067;28;20814;-70
2022/10/13 12:54:54;;;;;;;22.63;13.27;;;17.60;1.00;;;;;;4994546;28;20222;-73
2022/10/13 12:57:26;;;;;;;22.67;12.77;;;17.90;1.00;;;;;;5030070;28;21079;-72
2022/10/13 12:59:52;;;;;;;37.37;12.67;;;18.00;1.00;;;;;;5078619;28;20524;-73
2022/10/13 13:02:30;;;;;;;31.90;12.73;;;18.00;1.00;;;;;;5081637;28;20447;-73
2022/10/13 13:04:58;;;;;;;19.73;11.60;;;17.90;1.00;;;;;;5073219;28;20392;-75
2022/10/13 13:07:51;;;;;;;25.90;12.73;;;17.90;1.00;;;;;;5073728;28;20868;-79
2022/10/13 13:10:29;;;;;;;20.60;11.83;;;17.80;1.00;;;;;;5082115;28;20484;-82
2022/10/13 13:13:13;;;;;;;22.50;11.90;;;17.50;1.00;;;;;;5078771;28;20449;-75
2022/10/13 13:15:40;;;;;;;24.00;12.27;;;17.20;1.00;;;;;;5078101;28;20434;-75
2022/10/13 13:18:42;;;;;;;26.93;12.60;;;17.10;1.00;;;;;;5089215;28;20471;-76
2022/10/13 13:21:11;;;;;;;25.57;13.37;;;17.20;1.00;;;;;;5077701;28;20499;-75
2022/10/13 13:23:53;;;;;;;23.67;13.03;;;17.20;1.00;;;;;;5093516;28;20410;-75
2022/10/13 13:27:10;;;;;;;24.87;13.00;;;17.30;1.00;;;;;;5074212;28;20390;-83
2022/10/13 13:33:40;;;;;;;20.00;12.23;;;17.50;1.00;;;;;;5074658;28;20904;-83
2022/10/13 13:39:28;;;;;;;28.17;14.53;;;17.40;1.00;;;;;;5086397;28;20496;-79
2022/10/13 13:41:54;;;;;;;25.10;13.93;;;17.50;1.00;;;;;;5073158;28;20442;-82
2022/10/13 13:47:42;;;;;;;27.03;12.50;;;17.60;1.00;;;;;;5093224;28;20366;-80
2022/10/13 13:50:24;;;;;;;30.50;13.80;;;17.70;1.00;;;;;;5094480;28;20393;-80
2022/10/13 13:52:59;;;;;;;24.13;12.87;;;17.70;1.00;;;;;;5092472;28;20266;-84
2022/10/13 13:55:46;;;;;;;20.40;12.13;;;17.70;1.00;;;;;;5084047;28;20894;-81
2022/10/13 13:58:22;;;;;;;21.90;12.23;;;17.70;1.00;;;;;;5073120;28;20469;-82
2022/10/13 14:00:59;;;;;;;24.93;12.10;;;17.60;1.00;;;;;;5092714;28;20433;-85
2022/10/13 14:04:16;;;;;;;23.60;12.80;;;17.40;1.00;;;;;;5092116;28;20406;-82
2022/10/13 14:06:42;;;;;;;21.17;12.80;;;17.30;1.00;;;;;;5092126;28;20480;-79
2022/10/13 14:09:22;;;;;;;23.73;12.80;;;17.20;1.00;;;;;;5078992;28;20480;-78
2022/10/13 14:12:16;;;;;;;28.13;13.03;;;17.30;1.00;;;;;;5077684;28;20179;-79
2022/10/13 14:14:59;;;;;;;23.70;13.10;;;17.50;1.00;;;;;;5073099;28;20449;-81
2022/10/13 14:17:25;;;;;;;22.20;12.90;;;17.50;1.00;;;;;;5081088;28;20870;-78
2022/10/13 14:19:58;;;;;;;24.93;12.80;;;17.40;1.00;;;;;;5089722;28;20462;-79
2022/10/13 14:22:28;;;;;;;26.33;14.40;;;17.50;1.00;;;;;;5087069;28;20427;-76
2022/10/13 14:24:59;;;;;;;24.83;11.77;;;17.30;1.00;;;;;;5087876;28;20433;-77
2022/10/13 14:27:46;;;;;;;21.07;12.60;;;17.40;1.00;;;;;;5082064;28;20423;-77
2022/10/13 14:30:29;;;;;;;25.73;12.90;;;17.30;1.00;;;;;;5088673;28;20442;-78
2022/10/13 14:36:16;;;;;;;25.23;11.80;;;17.10;1.00;;;;;;5088509;28;20413;-79
2022/10/13 14:39:10;;;;;;;23.70;12.37;;;17.00;1.00;;;;;;5086858;28;20417;-79
2022/10/13 14:44:58;;;;;;;25.53;12.40;;;16.80;1.00;;;;;;5079669;28;20754;-78
2022/10/13 14:47:28;;;;;;;27.67;12.30;;;16.80;1.00;;;;;;5088575;28;20421;-78
2022/10/13 14:50:34;;;;;;;23.03;12.20;;;16.70;1.00;;;;;;5094284;28;20705;-78
2022/10/13 14:53:14;;;;;;;23.73;12.10;;;16.80;1.00;;;;;;5090009;28;20960;-78
2022/10/13 14:55:44;;;;;;;22.40;11.90;;;16.70;1.00;;;;;;5076660;28;20436;-81
2022/10/13 15:01:58;;;;;;;24.30;12.00;;;16.70;1.00;;;;;;5077375;28;20492;-84
2022/10/13 15:11:09;;;;;;;24.93;11.67;;;16.90;1.00;;;;;;5083398;28;20452;-84
2022/10/13 15:20:19;;;;;;;19.50;11.30;;;16.80;1.00;;;;;;5076972;28;20528;-84
2022/10/13 15:23:15;;;;;;;26.20;12.23;;;16.70;1.00;;;;;;5082746;28;20431;-84
2022/10/13 15:35:49;;;;;;;21.40;13.07;;;16.70;1.00;;;;;;5077192;28;20460;-84
2022/10/13 15:42:10;;;;;;;28.27;12.57;;;16.70;1.00;;;;;;5080993;28;20880;-84
2022/10/13 15:47:58;;;;;;;30.07;13.60;;;16.60;1.00;;;;;;5075280;28;20387;-84
2022/10/13 15:50:46;;;;;;;26.83;14.17;;;16.60;1.00;;;;;;5074343;28;20500;-85
2022/10/13 15:56:35;;;;;;;28.33;15.90;;;16.40;1.00;;;;;;5075779;28;20393;-80
2022/10/13 15:59:10;;;;;;;31.37;14.93;;;16.30;1.00;;;;;;5075918;28;20384;-78
2022/10/13 16:02:23;;;;;;;28.13;15.47;;;16.30;1.00;;;;;;5073938;28;20991;-79
2022/10/13 16:08:23;;;;;;;26.27;14.90;;;16.10;1.00;;;;;;5078577;28;20471;-78
2022/10/13 16:11:11;;;;;;;31.17;17.27;;;16.00;1.00;;;;;;5084505;28;20541;-79
2022/10/13 16:14:10;;;;;;;37.87;19.03;;;15.90;1.00;;;;;;5079736;28;20775;-79
2022/10/13 16:19:57;;;;;;;33.00;19.13;;;15.80;1.00;;;;;;5073906;28;20856;-79
2022/10/13 16:22:29;;;;;;;34.27;19.70;;;15.80;1.00;;;;;;5077450;28;20410;-78
2022/10/13 16:28:23;;;;;;;39.33;20.23;;;15.70;1.00;;;;;;5087946;28;20386;-82